sensor_id;sensor_type;location;lat;lon;timestamp;P1;durP1;ratioP1;P2;durP2;ratioP2
13327;SDS011;6733;51.044;3.746;2023-02-27T00:02:01;5.63;;;2.60;;
13327;SDS011;6733;51.044;3.746;2023-02-27T00:04:27;4.87;;;2.90;;
13327;SDS011;6733;51.044;3.746;2023-02-27T00:06:54;6.67;;;3.10;;
13327;SDS011;6733;51.044;3.746;2023-02-27T00:09:20;8.93;;;3.03;;
13327;SDS011;6733;51.044;3.746;2023-02-27T00:11:46;5.33;;;2.93;;
13327;SDS011;6733;51.044;3.746;2023-02-27T00:14:12;4.90;;;3.03;;
13327;SDS011;6733;51.044;3.746;2023-02-27T00:16:38;5.93;;;2.97;;
13327;SDS011;6733;51.044;3.746;2023-02-27T00:19:04;6.13;;;3.13;;
13327;SDS011;6733;51.044;3.746;2023-02-27T00:21:31;4.73;;;3.10;;
13327;SDS011;6733;51.044;3.746;2023-02-27T00:23:57;6.50;;;3.23;;
13327;SDS011;6733;51.044;3.746;2023-02-27T00:26:23;9.83;;;3.13;;
13327;SDS011;6733;51.044;3.746;2023-02-27T00:28:49;6.27;;;3.10;;
13327;SDS011;6733;51.044;3.746;2023-02-27T00:31:15;7.83;;;3.10;;
13327;SDS011;6733;51.044;3.746;2023-02-27T00:33:42;6.43;;;3.20;;
13327;SDS011;6733;51.044;3.746;2023-02-27T00:36:08;9.80;;;3.20;;
13327;SDS011;6733;51.044;3.746;2023-02-27T00:38:34;7.30;;;3.27;;
13327;SDS011;6733;51.044;3.746;2023-02-27T00:41:00;8.10;;;3.47;;
13327;SDS011;6733;51.044;3.746;2023-02-27T00:43:27;6.30;;;3.20;;
13327;SDS011;6733;51.044;3.746;2023-02-27T00:45:53;4.87;;;3.00;;
13327;SDS011;6733;51.044;3.746;2023-02-27T00:48:19;9.03;;;2.93;;
13327;SDS011;6733;51.044;3.746;2023-02-27T00:50:45;7.57;;;3.13;;
13327;SDS011;6733;51.044;3.746;2023-02-27T00:53:12;5.63;;;3.17;;
13327;SDS011;6733;51.044;3.746;2023-02-27T00:55:38;6.20;;;3.03;;
13327;SDS011;6733;51.044;3.746;2023-02-27T00:58:04;4.53;;;2.93;;
13327;SDS011;6733;51.044;3.746;2023-02-27T01:00:30;5.73;;;3.20;;
13327;SDS011;6733;51.044;3.746;2023-02-27T01:02:56;4.77;;;2.80;;
13327;SDS011;6733;51.044;3.746;2023-02-27T01:05:22;5.03;;;2.93;;
13327;SDS011;6733;51.044;3.746;2023-02-27T01:07:49;3.87;;;2.90;;
13327;SDS011;6733;51.044;3.746;2023-02-27T01:10:15;5.60;;;3.00;;
13327;SDS011;6733;51.044;3.746;2023-02-27T01:12:41;8.13;;;3.00;;
13327;SDS011;6733;51.044;3.746;2023-02-27T01:15:08;7.27;;;3.10;;
13327;SDS011;6733;51.044;3.746;2023-02-27T01:17:35;4.83;;;2.93;;
13327;SDS011;6733;51.044;3.746;2023-02-27T01:20:01;5.30;;;2.73;;
13327;SDS011;6733;51.044;3.746;2023-02-27T01:22:28;5.27;;;2.60;;
13327;SDS011;6733;51.044;3.746;2023-02-27T01:24:54;6.70;;;2.93;;
13327;SDS011;6733;51.044;3.746;2023-02-27T01:27:21;9.03;;;3.10;;
13327;SDS011;6733;51.044;3.746;2023-02-27T01:29:47;7.57;;;3.20;;
13327;SDS011;6733;51.044;3.746;2023-02-27T01:32:13;5.30;;;2.93;;
13327;SDS011;6733;51.044;3.746;2023-02-27T01:34:39;8.67;;;3.47;;
13327;SDS011;6733;51.044;3.746;2023-02-27T01:37:05;3.47;;;2.50;;
13327;SDS011;6733;51.044;3.746;2023-02-27T01:39:32;6.63;;;3.00;;
13327;SDS011;6733;51.044;3.746;2023-02-27T01:41:58;5.40;;;2.73;;
13327;SDS011;6733;51.044;3.746;2023-02-27T01:44:26;4.40;;;3.13;;
13327;SDS011;6733;51.044;3.746;2023-02-27T01:46:54;4.00;;;2.83;;
13327;SDS011;6733;51.044;3.746;2023-02-27T01:49:24;4.57;;;2.87;;
13327;SDS011;6733;51.044;3.746;2023-02-27T01:51:55;7.30;;;3.50;;
13327;SDS011;6733;51.044;3.746;2023-02-27T01:54:28;8.43;;;3.70;;
13327;SDS011;6733;51.044;3.746;2023-02-27T01:56:58;6.10;;;3.00;;
13327;SDS011;6733;51.044;3.746;2023-02-27T01:59:27;5.67;;;2.97;;
13327;SDS011;6733;51.044;3.746;2023-02-27T02:01:54;4.80;;;2.70;;
13327;SDS011;6733;51.044;3.746;2023-02-27T02:04:29;7.97;;;3.37;;
13327;SDS011;6733;51.044;3.746;2023-02-27T02:07:00;3.83;;;3.53;;
13327;SDS011;6733;51.044;3.746;2023-02-27T02:09:28;5.57;;;2.97;;
13327;SDS011;6733;51.044;3.746;2023-02-27T02:11:57;4.93;;;2.30;;
13327;SDS011;6733;51.044;3.746;2023-02-27T02:14:24;8.13;;;2.90;;
13327;SDS011;6733;51.044;3.746;2023-02-27T02:16:57;6.80;;;3.27;;
13327;SDS011;6733;51.044;3.746;2023-02-27T02:26:06;8.00;;;2.73;;
13327;SDS011;6733;51.044;3.746;2023-02-27T02:50:14;9.07;;;3.60;;
13327;SDS011;6733;51.044;3.746;2023-02-27T02:59:25;6.53;;;3.53;;
13327;SDS011;6733;51.044;3.746;2023-02-27T03:02:02;6.83;;;3.47;;
13327;SDS011;6733;51.044;3.746;2023-02-27T03:04:43;6.53;;;3.17;;
13327;SDS011;6733;51.044;3.746;2023-02-27T03:07:24;9.20;;;3.33;;
13327;SDS011;6733;51.044;3.746;2023-02-27T03:12:50;6.50;;;3.23;;
13327;SDS011;6733;51.044;3.746;2023-02-27T03:15:24;7.73;;;3.17;;
13327;SDS011;6733;51.044;3.746;2023-02-27T03:18:00;6.10;;;3.47;;
13327;SDS011;6733;51.044;3.746;2023-02-27T03:20:36;4.63;;;3.87;;
13327;SDS011;6733;51.044;3.746;2023-02-27T03:23:12;5.63;;;3.67;;
13327;SDS011;6733;51.044;3.746;2023-02-27T03:25:44;6.93;;;3.80;;
13327;SDS011;6733;51.044;3.746;2023-02-27T03:28:14;11.77;;;4.77;;
13327;SDS011;6733;51.044;3.746;2023-02-27T03:30:48;8.27;;;4.03;;
13327;SDS011;6733;51.044;3.746;2023-02-27T03:33:22;7.83;;;4.13;;
13327;SDS011;6733;51.044;3.746;2023-02-27T03:38:43;5.60;;;3.73;;
13327;SDS011;6733;51.044;3.746;2023-02-27T03:43:59;7.33;;;3.83;;
13327;SDS011;6733;51.044;3.746;2023-02-27T03:46:44;5.47;;;3.30;;
13327;SDS011;6733;51.044;3.746;2023-02-27T03:49:10;7.77;;;3.50;;
13327;SDS011;6733;51.044;3.746;2023-02-27T03:51:36;6.30;;;3.03;;
13327;SDS011;6733;51.044;3.746;2023-02-27T03:54:10;6.10;;;3.17;;
13327;SDS011;6733;51.044;3.746;2023-02-27T03:57:02;5.00;;;3.20;;
13327;SDS011;6733;51.044;3.746;2023-02-27T03:59:34;8.27;;;3.23;;
13327;SDS011;6733;51.044;3.746;2023-02-27T04:02:02;6.90;;;3.03;;
13327;SDS011;6733;51.044;3.746;2023-02-27T04:04:29;7.47;;;3.27;;
13327;SDS011;6733;51.044;3.746;2023-02-27T04:06:58;5.80;;;2.93;;
13327;SDS011;6733;51.044;3.746;2023-02-27T04:20:49;10.00;;;3.60;;
13327;SDS011;6733;51.044;3.746;2023-02-27T04:26:18;8.53;;;3.37;;
13327;SDS011;6733;51.044;3.746;2023-02-27T04:29:06;5.70;;;3.23;;
13327;SDS011;6733;51.044;3.746;2023-02-27T04:34:22;6.27;;;3.33;;
13327;SDS011;6733;51.044;3.746;2023-02-27T04:37:07;6.70;;;2.93;;
13327;SDS011;6733;51.044;3.746;2023-02-27T04:40:07;6.47;;;3.30;;
13327;SDS011;6733;51.044;3.746;2023-02-27T04:42:40;7.40;;;3.00;;
13327;SDS011;6733;51.044;3.746;2023-02-27T04:45:11;8.70;;;3.70;;
13327;SDS011;6733;51.044;3.746;2023-02-27T04:47:45;5.17;;;3.33;;
13327;SDS011;6733;51.044;3.746;2023-02-27T04:50:21;4.60;;;3.40;;
13327;SDS011;6733;51.044;3.746;2023-02-27T04:53:08;4.37;;;2.93;;
13327;SDS011;6733;51.044;3.746;2023-02-27T04:55:53;4.63;;;3.17;;
13327;SDS011;6733;51.044;3.746;2023-02-27T04:58:37;7.37;;;3.10;;
13327;SDS011;6733;51.044;3.746;2023-02-27T05:01:13;8.37;;;3.40;;
13327;SDS011;6733;51.044;3.746;2023-02-27T05:03:46;4.93;;;2.53;;
13327;SDS011;6733;51.044;3.746;2023-02-27T05:06:16;6.90;;;2.97;;
13327;SDS011;6733;51.044;3.746;2023-02-27T05:08:54;7.77;;;3.27;;
13327;SDS011;6733;51.044;3.746;2023-02-27T05:11:27;6.17;;;3.43;;
13327;SDS011;6733;51.044;3.746;2023-02-27T05:14:12;6.50;;;3.13;;
13327;SDS011;6733;51.044;3.746;2023-02-27T05:16:59;7.03;;;3.93;;
13327;SDS011;6733;51.044;3.746;2023-02-27T05:19:42;5.53;;;3.40;;
13327;SDS011;6733;51.044;3.746;2023-02-27T05:22:12;5.23;;;3.33;;
13327;SDS011;6733;51.044;3.746;2023-02-27T05:24:45;5.70;;;3.60;;
13327;SDS011;6733;51.044;3.746;2023-02-27T05:29:50;7.43;;;3.97;;
13327;SDS011;6733;51.044;3.746;2023-02-27T05:35:10;7.33;;;3.70;;
13327;SDS011;6733;51.044;3.746;2023-02-27T05:37:49;7.50;;;4.30;;
13327;SDS011;6733;51.044;3.746;2023-02-27T05:40:33;9.67;;;4.13;;
13327;SDS011;6733;51.044;3.746;2023-02-27T05:43:07;6.17;;;3.50;;
13327;SDS011;6733;51.044;3.746;2023-02-27T05:45:38;10.03;;;4.27;;
13327;SDS011;6733;51.044;3.746;2023-02-27T05:48:12;5.77;;;3.60;;
13327;SDS011;6733;51.044;3.746;2023-02-27T05:50:41;6.53;;;3.77;;
13327;SDS011;6733;51.044;3.746;2023-02-27T05:53:10;7.17;;;3.80;;
13327;SDS011;6733;51.044;3.746;2023-02-27T05:55:42;7.43;;;3.93;;
13327;SDS011;6733;51.044;3.746;2023-02-27T05:58:15;9.00;;;4.10;;
13327;SDS011;6733;51.044;3.746;2023-02-27T06:00:59;9.70;;;4.40;;
13327;SDS011;6733;51.044;3.746;2023-02-27T06:03:27;4.97;;;3.80;;
13327;SDS011;6733;51.044;3.746;2023-02-27T06:05:57;6.47;;;4.00;;
13327;SDS011;6733;51.044;3.746;2023-02-27T06:08:25;7.87;;;3.73;;
13327;SDS011;6733;51.044;3.746;2023-02-27T06:10:51;7.23;;;4.57;;
13327;SDS011;6733;51.044;3.746;2023-02-27T06:13:20;7.40;;;3.83;;
13327;SDS011;6733;51.044;3.746;2023-02-27T06:15:46;8.83;;;4.10;;
13327;SDS011;6733;51.044;3.746;2023-02-27T06:18:14;8.10;;;3.93;;
13327;SDS011;6733;51.044;3.746;2023-02-27T06:20:41;9.30;;;4.30;;
13327;SDS011;6733;51.044;3.746;2023-02-27T06:23:08;9.17;;;4.47;;
13327;SDS011;6733;51.044;3.746;2023-02-27T06:25:36;6.53;;;4.63;;
13327;SDS011;6733;51.044;3.746;2023-02-27T06:28:03;9.00;;;4.07;;
13327;SDS011;6733;51.044;3.746;2023-02-27T06:30:29;6.10;;;4.03;;
13327;SDS011;6733;51.044;3.746;2023-02-27T06:32:56;7.47;;;4.43;;
13327;SDS011;6733;51.044;3.746;2023-02-27T06:35:22;8.43;;;4.80;;
13327;SDS011;6733;51.044;3.746;2023-02-27T06:37:48;7.03;;;4.40;;
13327;SDS011;6733;51.044;3.746;2023-02-27T06:40:15;7.57;;;4.43;;
13327;SDS011;6733;51.044;3.746;2023-02-27T06:42:41;7.00;;;4.47;;
13327;SDS011;6733;51.044;3.746;2023-02-27T06:45:10;5.13;;;4.27;;
13327;SDS011;6733;51.044;3.746;2023-02-27T06:47:38;8.97;;;4.57;;
13327;SDS011;6733;51.044;3.746;2023-02-27T06:50:05;7.70;;;4.17;;
13327;SDS011;6733;51.044;3.746;2023-02-27T06:52:32;7.70;;;4.20;;
13327;SDS011;6733;51.044;3.746;2023-02-27T06:54:58;7.43;;;4.17;;
13327;SDS011;6733;51.044;3.746;2023-02-27T06:57:24;6.97;;;4.50;;
13327;SDS011;6733;51.044;3.746;2023-02-27T06:59:51;9.07;;;5.30;;
13327;SDS011;6733;51.044;3.746;2023-02-27T07:02:17;6.20;;;4.17;;
13327;SDS011;6733;51.044;3.746;2023-02-27T07:04:43;6.80;;;4.50;;
13327;SDS011;6733;51.044;3.746;2023-02-27T07:07:09;9.33;;;5.57;;
13327;SDS011;6733;51.044;3.746;2023-02-27T07:09:35;6.83;;;4.90;;
13327;SDS011;6733;51.044;3.746;2023-02-27T07:12:02;6.50;;;4.77;;
13327;SDS011;6733;51.044;3.746;2023-02-27T07:14:29;9.73;;;5.27;;
13327;SDS011;6733;51.044;3.746;2023-02-27T07:16:55;7.10;;;4.30;;
13327;SDS011;6733;51.044;3.746;2023-02-27T07:19:22;6.67;;;4.63;;
13327;SDS011;6733;51.044;3.746;2023-02-27T07:21:48;8.93;;;4.70;;
13327;SDS011;6733;51.044;3.746;2023-02-27T07:24:15;10.17;;;4.57;;
13327;SDS011;6733;51.044;3.746;2023-02-27T07:26:41;12.97;;;5.20;;
13327;SDS011;6733;51.044;3.746;2023-02-27T07:29:07;9.83;;;5.03;;
13327;SDS011;6733;51.044;3.746;2023-02-27T07:31:34;7.17;;;4.10;;
13327;SDS011;6733;51.044;3.746;2023-02-27T07:34:00;6.10;;;4.40;;
13327;SDS011;6733;51.044;3.746;2023-02-27T07:36:26;6.83;;;4.23;;
13327;SDS011;6733;51.044;3.746;2023-02-27T07:38:54;7.27;;;4.77;;
13327;SDS011;6733;51.044;3.746;2023-02-27T07:41:20;7.03;;;4.23;;
13327;SDS011;6733;51.044;3.746;2023-02-27T07:43:46;9.70;;;5.13;;
13327;SDS011;6733;51.044;3.746;2023-02-27T07:46:12;7.90;;;4.70;;
13327;SDS011;6733;51.044;3.746;2023-02-27T07:48:38;6.13;;;4.60;;
13327;SDS011;6733;51.044;3.746;2023-02-27T07:51:05;7.13;;;4.80;;
13327;SDS011;6733;51.044;3.746;2023-02-27T07:53:31;10.30;;;4.57;;
13327;SDS011;6733;51.044;3.746;2023-02-27T07:55:58;6.63;;;4.23;;
13327;SDS011;6733;51.044;3.746;2023-02-27T07:58:24;8.60;;;4.77;;
13327;SDS011;6733;51.044;3.746;2023-02-27T08:00:52;8.83;;;4.47;;
13327;SDS011;6733;51.044;3.746;2023-02-27T08:03:18;11.03;;;5.07;;
13327;SDS011;6733;51.044;3.746;2023-02-27T08:05:45;11.57;;;4.53;;
13327;SDS011;6733;51.044;3.746;2023-02-27T08:08:11;11.00;;;4.60;;
13327;SDS011;6733;51.044;3.746;2023-02-27T08:10:37;10.53;;;4.80;;
13327;SDS011;6733;51.044;3.746;2023-02-27T08:13:03;11.33;;;5.00;;
13327;SDS011;6733;51.044;3.746;2023-02-27T08:15:29;12.87;;;5.23;;
13327;SDS011;6733;51.044;3.746;2023-02-27T08:17:57;9.30;;;4.53;;
13327;SDS011;6733;51.044;3.746;2023-02-27T08:20:23;9.50;;;4.83;;
13327;SDS011;6733;51.044;3.746;2023-02-27T08:22:49;9.47;;;4.83;;
13327;SDS011;6733;51.044;3.746;2023-02-27T08:25:16;8.20;;;4.33;;
13327;SDS011;6733;51.044;3.746;2023-02-27T08:27:42;8.57;;;4.63;;
13327;SDS011;6733;51.044;3.746;2023-02-27T08:30:10;8.67;;;5.07;;
13327;SDS011;6733;51.044;3.746;2023-02-27T08:32:37;8.20;;;3.93;;
13327;SDS011;6733;51.044;3.746;2023-02-27T08:35:04;6.50;;;4.63;;
13327;SDS011;6733;51.044;3.746;2023-02-27T08:37:31;9.47;;;5.10;;
13327;SDS011;6733;51.044;3.746;2023-02-27T08:39:57;8.10;;;4.40;;
13327;SDS011;6733;51.044;3.746;2023-02-27T08:42:23;7.37;;;4.00;;
13327;SDS011;6733;51.044;3.746;2023-02-27T08:44:49;7.97;;;4.30;;
13327;SDS011;6733;51.044;3.746;2023-02-27T08:47:15;6.40;;;4.20;;
13327;SDS011;6733;51.044;3.746;2023-02-27T08:49:42;6.87;;;4.27;;
13327;SDS011;6733;51.044;3.746;2023-02-27T08:52:08;8.93;;;4.57;;
13327;SDS011;6733;51.044;3.746;2023-02-27T08:54:35;7.17;;;4.10;;
13327;SDS011;6733;51.044;3.746;2023-02-27T08:57:04;9.60;;;3.93;;
13327;SDS011;6733;51.044;3.746;2023-02-27T08:59:30;7.20;;;3.93;;
13327;SDS011;6733;51.044;3.746;2023-02-27T09:01:57;5.50;;;3.50;;
13327;SDS011;6733;51.044;3.746;2023-02-27T09:04:23;6.37;;;4.07;;
13327;SDS011;6733;51.044;3.746;2023-02-27T09:06:50;9.07;;;3.77;;
13327;SDS011;6733;51.044;3.746;2023-02-27T09:09:18;5.73;;;4.03;;
13327;SDS011;6733;51.044;3.746;2023-02-27T09:11:45;7.47;;;4.37;;
13327;SDS011;6733;51.044;3.746;2023-02-27T09:14:11;6.20;;;4.13;;
13327;SDS011;6733;51.044;3.746;2023-02-27T09:16:37;8.43;;;4.67;;
13327;SDS011;6733;51.044;3.746;2023-02-27T09:19:04;7.37;;;4.50;;
13327;SDS011;6733;51.044;3.746;2023-02-27T09:21:30;7.07;;;4.27;;
13327;SDS011;6733;51.044;3.746;2023-02-27T09:23:56;7.70;;;4.17;;
13327;SDS011;6733;51.044;3.746;2023-02-27T09:26:23;9.73;;;4.17;;
13327;SDS011;6733;51.044;3.746;2023-02-27T09:28:50;7.60;;;4.37;;
13327;SDS011;6733;51.044;3.746;2023-02-27T09:31:16;5.87;;;3.77;;
13327;SDS011;6733;51.044;3.746;2023-02-27T09:33:42;4.83;;;4.33;;
13327;SDS011;6733;51.044;3.746;2023-02-27T09:36:09;4.90;;;3.60;;
13327;SDS011;6733;51.044;3.746;2023-02-27T09:38:35;10.37;;;4.00;;
13327;SDS011;6733;51.044;3.746;2023-02-27T09:41:03;7.67;;;4.13;;
13327;SDS011;6733;51.044;3.746;2023-02-27T09:43:44;4.70;;;3.77;;
13327;SDS011;6733;51.044;3.746;2023-02-27T09:46:16;9.77;;;4.67;;
13327;SDS011;6733;51.044;3.746;2023-02-27T09:48:46;5.20;;;3.27;;
13327;SDS011;6733;51.044;3.746;2023-02-27T09:51:19;5.97;;;3.40;;
13327;SDS011;6733;51.044;3.746;2023-02-27T09:53:48;4.77;;;3.57;;
13327;SDS011;6733;51.044;3.746;2023-02-27T09:56:32;6.13;;;3.67;;
13327;SDS011;6733;51.044;3.746;2023-02-27T09:59:26;6.27;;;4.03;;
13327;SDS011;6733;51.044;3.746;2023-02-27T10:01:56;12.43;;;5.90;;
13327;SDS011;6733;51.044;3.746;2023-02-27T10:04:49;5.00;;;3.97;;
13327;SDS011;6733;51.044;3.746;2023-02-27T10:10:36;6.57;;;3.13;;
13327;SDS011;6733;51.044;3.746;2023-02-27T10:16:09;5.13;;;2.50;;
13327;SDS011;6733;51.044;3.746;2023-02-27T10:21:28;5.20;;;2.43;;
13327;SDS011;6733;51.044;3.746;2023-02-27T10:24:06;5.87;;;2.60;;
13327;SDS011;6733;51.044;3.746;2023-02-27T10:26:38;7.80;;;2.83;;
13327;SDS011;6733;51.044;3.746;2023-02-27T10:29:14;5.30;;;3.53;;
13327;SDS011;6733;51.044;3.746;2023-02-27T10:31:47;6.23;;;3.23;;
13327;SDS011;6733;51.044;3.746;2023-02-27T10:34:20;8.13;;;2.70;;
13327;SDS011;6733;51.044;3.746;2023-02-27T10:36:48;5.90;;;3.20;;
13327;SDS011;6733;51.044;3.746;2023-02-27T10:39:15;7.40;;;3.03;;
13327;SDS011;6733;51.044;3.746;2023-02-27T10:41:43;6.23;;;2.90;;
13327;SDS011;6733;51.044;3.746;2023-02-27T10:44:13;5.07;;;2.90;;
13327;SDS011;6733;51.044;3.746;2023-02-27T10:46:42;4.37;;;2.60;;
13327;SDS011;6733;51.044;3.746;2023-02-27T10:49:16;4.97;;;2.53;;
13327;SDS011;6733;51.044;3.746;2023-02-27T10:51:45;7.67;;;2.80;;
13327;SDS011;6733;51.044;3.746;2023-02-27T10:54:28;6.47;;;3.97;;
13327;SDS011;6733;51.044;3.746;2023-02-27T10:56:54;4.77;;;3.20;;
13327;SDS011;6733;51.044;3.746;2023-02-27T10:59:26;4.53;;;3.37;;
13327;SDS011;6733;51.044;3.746;2023-02-27T11:01:54;8.67;;;5.00;;
13327;SDS011;6733;51.044;3.746;2023-02-27T11:06:59;6.77;;;4.30;;
13327;SDS011;6733;51.044;3.746;2023-02-27T11:09:28;15.00;;;6.70;;
13327;SDS011;6733;51.044;3.746;2023-02-27T11:14:48;13.60;;;7.50;;
13327;SDS011;6733;51.044;3.746;2023-02-27T11:17:27;8.40;;;3.67;;
13327;SDS011;6733;51.044;3.746;2023-02-27T11:19:55;7.73;;;4.07;;
13327;SDS011;6733;51.044;3.746;2023-02-27T11:22:23;10.10;;;4.00;;
13327;SDS011;6733;51.044;3.746;2023-02-27T11:24:51;13.00;;;5.90;;
13327;SDS011;6733;51.044;3.746;2023-02-27T11:27:33;3.87;;;3.23;;
13327;SDS011;6733;51.044;3.746;2023-02-27T11:30:01;5.70;;;3.00;;
13327;SDS011;6733;51.044;3.746;2023-02-27T11:32:44;4.37;;;3.03;;
13327;SDS011;6733;51.044;3.746;2023-02-27T11:35:24;5.83;;;3.07;;
13327;SDS011;6733;51.044;3.746;2023-02-27T11:38:20;4.27;;;2.83;;
13327;SDS011;6733;51.044;3.746;2023-02-27T11:43:27;12.87;;;3.53;;
13327;SDS011;6733;51.044;3.746;2023-02-27T11:46:06;4.00;;;2.60;;
13327;SDS011;6733;51.044;3.746;2023-02-27T11:48:37;4.40;;;3.37;;
13327;SDS011;6733;51.044;3.746;2023-02-27T11:56:43;4.13;;;2.17;;
13327;SDS011;6733;51.044;3.746;2023-02-27T12:02:16;6.80;;;2.57;;
13327;SDS011;6733;51.044;3.746;2023-02-27T12:04:51;6.70;;;3.83;;
13327;SDS011;6733;51.044;3.746;2023-02-27T12:13:02;5.60;;;3.17;;
13327;SDS011;6733;51.044;3.746;2023-02-27T12:15:36;3.10;;;2.30;;
13327;SDS011;6733;51.044;3.746;2023-02-27T12:21:19;2.77;;;1.70;;
13327;SDS011;6733;51.044;3.746;2023-02-27T12:24:03;4.40;;;2.53;;
13327;SDS011;6733;51.044;3.746;2023-02-27T12:26:43;3.23;;;1.80;;
13327;SDS011;6733;51.044;3.746;2023-02-27T12:31:45;2.77;;;1.90;;
13327;SDS011;6733;51.044;3.746;2023-02-27T12:34:27;6.23;;;2.30;;
13327;SDS011;6733;51.044;3.746;2023-02-27T12:37:08;3.00;;;2.03;;
13327;SDS011;6733;51.044;3.746;2023-02-27T12:39:37;5.40;;;2.10;;
13327;SDS011;6733;51.044;3.746;2023-02-27T12:44:48;3.47;;;2.03;;
13327;SDS011;6733;51.044;3.746;2023-02-27T12:47:39;4.93;;;1.97;;
13327;SDS011;6733;51.044;3.746;2023-02-27T12:50:14;3.30;;;1.90;;
13327;SDS011;6733;51.044;3.746;2023-02-27T13:00:39;10.57;;;6.00;;
13327;SDS011;6733;51.044;3.746;2023-02-27T13:06:06;3.00;;;2.27;;
13327;SDS011;6733;51.044;3.746;2023-02-27T13:08:43;4.60;;;2.50;;
13327;SDS011;6733;51.044;3.746;2023-02-27T13:14:06;3.60;;;2.10;;
13327;SDS011;6733;51.044;3.746;2023-02-27T13:16:39;2.60;;;2.10;;
13327;SDS011;6733;51.044;3.746;2023-02-27T13:19:25;2.70;;;1.80;;
13327;SDS011;6733;51.044;3.746;2023-02-27T13:22:14;4.43;;;2.10;;
13327;SDS011;6733;51.044;3.746;2023-02-27T13:24:49;2.90;;;2.07;;
13327;SDS011;6733;51.044;3.746;2023-02-27T13:27:18;4.07;;;1.63;;
13327;SDS011;6733;51.044;3.746;2023-02-27T13:32:30;3.23;;;2.20;;
13327;SDS011;6733;51.044;3.746;2023-02-27T13:35:12;6.30;;;2.43;;
13327;SDS011;6733;51.044;3.746;2023-02-27T13:37:55;6.10;;;2.57;;
13327;SDS011;6733;51.044;3.746;2023-02-27T13:43:00;4.23;;;2.40;;
13327;SDS011;6733;51.044;3.746;2023-02-27T13:50:58;3.73;;;2.10;;
13327;SDS011;6733;51.044;3.746;2023-02-27T13:53:25;2.73;;;1.80;;
13327;SDS011;6733;51.044;3.746;2023-02-27T13:58:45;3.73;;;2.07;;
13327;SDS011;6733;51.044;3.746;2023-02-27T14:01:24;5.40;;;2.20;;
13327;SDS011;6733;51.044;3.746;2023-02-27T14:03:53;4.20;;;1.90;;
13327;SDS011;6733;51.044;3.746;2023-02-27T14:06:30;4.90;;;2.60;;
13327;SDS011;6733;51.044;3.746;2023-02-27T14:08:57;3.67;;;2.20;;
13327;SDS011;6733;51.044;3.746;2023-02-27T14:11:26;4.67;;;2.20;;
13327;SDS011;6733;51.044;3.746;2023-02-27T14:24:40;2.47;;;2.20;;
13327;SDS011;6733;51.044;3.746;2023-02-27T14:27:30;13.03;;;4.40;;
13327;SDS011;6733;51.044;3.746;2023-02-27T14:30:04;9.90;;;4.30;;
13327;SDS011;6733;51.044;3.746;2023-02-27T14:32:34;4.80;;;2.77;;
13327;SDS011;6733;51.044;3.746;2023-02-27T14:35:03;4.70;;;2.93;;
13327;SDS011;6733;51.044;3.746;2023-02-27T14:37:30;6.77;;;4.00;;
13327;SDS011;6733;51.044;3.746;2023-02-27T14:39:57;5.67;;;3.63;;
13327;SDS011;6733;51.044;3.746;2023-02-27T14:42:47;3.00;;;2.40;;
13327;SDS011;6733;51.044;3.746;2023-02-27T14:45:34;5.40;;;3.93;;
13327;SDS011;6733;51.044;3.746;2023-02-27T14:48:00;6.37;;;5.03;;
13327;SDS011;6733;51.044;3.746;2023-02-27T14:50:31;4.43;;;3.10;;
13327;SDS011;6733;51.044;3.746;2023-02-27T14:53:01;4.80;;;3.10;;
13327;SDS011;6733;51.044;3.746;2023-02-27T14:55:29;3.20;;;2.90;;
13327;SDS011;6733;51.044;3.746;2023-02-27T14:58:08;4.03;;;3.67;;
13327;SDS011;6733;51.044;3.746;2023-02-27T15:03:11;5.40;;;4.27;;
13327;SDS011;6733;51.044;3.746;2023-02-27T15:05:41;5.17;;;3.10;;
13327;SDS011;6733;51.044;3.746;2023-02-27T15:08:12;7.23;;;3.33;;
13327;SDS011;6733;51.044;3.746;2023-02-27T15:10:44;4.73;;;3.10;;
13327;SDS011;6733;51.044;3.746;2023-02-27T15:13:18;4.30;;;2.53;;
13327;SDS011;6733;51.044;3.746;2023-02-27T15:18:55;4.23;;;3.23;;
13327;SDS011;6733;51.044;3.746;2023-02-27T15:21:25;6.70;;;3.33;;
13327;SDS011;6733;51.044;3.746;2023-02-27T15:23:58;6.57;;;3.50;;
13327;SDS011;6733;51.044;3.746;2023-02-27T15:26:30;3.50;;;2.90;;
13327;SDS011;6733;51.044;3.746;2023-02-27T15:29:01;4.03;;;2.70;;
13327;SDS011;6733;51.044;3.746;2023-02-27T15:31:29;5.20;;;2.80;;
13327;SDS011;6733;51.044;3.746;2023-02-27T15:33:57;14.13;;;7.53;;
13327;SDS011;6733;51.044;3.746;2023-02-27T15:36:29;11.27;;;6.40;;
13327;SDS011;6733;51.044;3.746;2023-02-27T15:39:02;4.73;;;2.77;;
13327;SDS011;6733;51.044;3.746;2023-02-27T15:41:30;2.40;;;2.20;;
13327;SDS011;6733;51.044;3.746;2023-02-27T15:43:57;4.47;;;2.60;;
13327;SDS011;6733;51.044;3.746;2023-02-27T15:46:24;4.83;;;2.40;;
13327;SDS011;6733;51.044;3.746;2023-02-27T15:48:50;5.03;;;2.93;;
13327;SDS011;6733;51.044;3.746;2023-02-27T15:51:19;4.40;;;2.57;;
13327;SDS011;6733;51.044;3.746;2023-02-27T15:53:48;7.57;;;2.37;;
13327;SDS011;6733;51.044;3.746;2023-02-27T15:56:17;3.93;;;2.60;;
13327;SDS011;6733;51.044;3.746;2023-02-27T15:58:50;3.77;;;2.40;;
13327;SDS011;6733;51.044;3.746;2023-02-27T16:01:22;6.83;;;2.67;;
13327;SDS011;6733;51.044;3.746;2023-02-27T16:03:54;5.93;;;2.50;;
13327;SDS011;6733;51.044;3.746;2023-02-27T16:09:00;4.60;;;3.03;;
13327;SDS011;6733;51.044;3.746;2023-02-27T16:11:30;6.77;;;2.77;;
13327;SDS011;6733;51.044;3.746;2023-02-27T16:13:58;5.20;;;2.50;;
13327;SDS011;6733;51.044;3.746;2023-02-27T16:16:29;3.63;;;2.40;;
13327;SDS011;6733;51.044;3.746;2023-02-27T16:19:46;5.30;;;2.50;;
13327;SDS011;6733;51.044;3.746;2023-02-27T16:22:01;3.80;;;2.73;;
13327;SDS011;6733;51.044;3.746;2023-02-27T16:24:47;4.20;;;3.10;;
13327;SDS011;6733;51.044;3.746;2023-02-27T16:27:18;4.70;;;2.50;;
13327;SDS011;6733;51.044;3.746;2023-02-27T16:29:52;4.67;;;2.60;;
13327;SDS011;6733;51.044;3.746;2023-02-27T16:32:23;7.27;;;3.57;;
13327;SDS011;6733;51.044;3.746;2023-02-27T16:35:04;6.50;;;3.00;;
13327;SDS011;6733;51.044;3.746;2023-02-27T16:37:37;8.93;;;2.90;;
13327;SDS011;6733;51.044;3.746;2023-02-27T16:40:09;4.67;;;2.50;;
13327;SDS011;6733;51.044;3.746;2023-02-27T16:42:39;4.17;;;2.30;;
13327;SDS011;6733;51.044;3.746;2023-02-27T16:45:08;4.33;;;2.40;;
13327;SDS011;6733;51.044;3.746;2023-02-27T16:47:43;4.97;;;2.60;;
13327;SDS011;6733;51.044;3.746;2023-02-27T16:50:33;6.37;;;2.70;;
13327;SDS011;6733;51.044;3.746;2023-02-27T16:52:59;4.70;;;2.53;;
13327;SDS011;6733;51.044;3.746;2023-02-27T16:55:26;3.90;;;2.43;;
13327;SDS011;6733;51.044;3.746;2023-02-27T16:57:52;7.77;;;3.13;;
13327;SDS011;6733;51.044;3.746;2023-02-27T17:00:18;5.33;;;2.73;;
13327;SDS011;6733;51.044;3.746;2023-02-27T17:02:47;5.30;;;2.77;;
13327;SDS011;6733;51.044;3.746;2023-02-27T17:05:13;6.93;;;2.70;;
13327;SDS011;6733;51.044;3.746;2023-02-27T17:07:40;4.80;;;3.27;;
13327;SDS011;6733;51.044;3.746;2023-02-27T17:10:07;4.17;;;2.93;;
13327;SDS011;6733;51.044;3.746;2023-02-27T17:12:38;6.17;;;2.80;;
13327;SDS011;6733;51.044;3.746;2023-02-27T17:15:04;4.77;;;2.97;;
13327;SDS011;6733;51.044;3.746;2023-02-27T17:17:31;4.47;;;3.03;;
13327;SDS011;6733;51.044;3.746;2023-02-27T17:19:57;7.43;;;3.30;;
13327;SDS011;6733;51.044;3.746;2023-02-27T17:22:23;5.57;;;3.50;;
13327;SDS011;6733;51.044;3.746;2023-02-27T17:24:49;5.63;;;3.40;;
13327;SDS011;6733;51.044;3.746;2023-02-27T17:27:15;4.60;;;3.33;;
13327;SDS011;6733;51.044;3.746;2023-02-27T17:29:41;4.90;;;3.03;;
13327;SDS011;6733;51.044;3.746;2023-02-27T17:32:08;8.33;;;3.70;;
13327;SDS011;6733;51.044;3.746;2023-02-27T17:34:34;8.40;;;4.00;;
13327;SDS011;6733;51.044;3.746;2023-02-27T17:37:00;5.03;;;3.50;;
13327;SDS011;6733;51.044;3.746;2023-02-27T17:39:26;5.60;;;3.83;;
13327;SDS011;6733;51.044;3.746;2023-02-27T17:41:53;6.33;;;3.03;;
13327;SDS011;6733;51.044;3.746;2023-02-27T17:44:21;4.83;;;3.30;;
13327;SDS011;6733;51.044;3.746;2023-02-27T17:46:47;4.00;;;3.23;;
13327;SDS011;6733;51.044;3.746;2023-02-27T17:49:14;6.03;;;3.57;;
13327;SDS011;6733;51.044;3.746;2023-02-27T17:51:40;4.73;;;3.10;;
13327;SDS011;6733;51.044;3.746;2023-02-27T17:54:06;4.80;;;3.30;;